sensor_id;sensor_type;location;lat;lon;timestamp;pressure;altitude;pressure_sealevel;temperature;humidity
39341;BME280;25059;52.132;21.062;2023-05-19T00:00:51;101461.66;;;21.99;50.30
39341;BME280;25059;52.132;21.062;2023-05-19T00:03:36;101474.78;;;22.42;49.50
39341;BME280;25059;52.132;21.062;2023-05-19T00:06:25;101472.41;;;22.37;49.96
39341;BME280;25059;52.132;21.062;2023-05-19T00:09:11;101468.66;;;22.14;49.86
39341;BME280;25059;52.132;21.062;2023-05-19T00:11:56;101455.91;;;22.05;49.87
39341;BME280;25059;52.132;21.062;2023-05-19T00:14:40;101463.41;;;22.13;49.97
39341;BME280;25059;52.132;21.062;2023-05-19T00:17:25;101467.16;;;22.10;49.92
39341;BME280;25059;52.132;21.062;2023-05-19T00:20:09;101458.03;;;22.00;50.33
39341;BME280;25059;52.132;21.062;2023-05-19T00:22:55;101444.03;;;22.09;49.51
39341;BME280;25059;52.132;21.062;2023-05-19T00:25:40;101443.78;;;22.00;49.41
39341;BME280;25059;52.132;21.062;2023-05-19T00:28:24;101469.66;;;21.74;49.53
39341;BME280;25059;52.132;21.062;2023-05-19T00:31:09;101457.56;;;21.81;49.85
39341;BME280;25059;52.132;21.062;2023-05-19T00:33:53;101460.06;;;21.44;50.23
39341;BME280;25059;52.132;21.062;2023-05-19T00:36:38;101442.44;;;21.27;50.30
39341;BME280;25059;52.132;21.062;2023-05-19T00:39:22;101448.75;;;22.06;48.89
39341;BME280;25059;52.132;21.062;2023-05-19T00:42:07;101457.00;;;22.28;48.45
39341;BME280;25059;52.132;21.062;2023-05-19T00:44:52;101453.53;;;22.01;48.60
39341;BME280;25059;52.132;21.062;2023-05-19T00:47:38;101454.63;;;22.49;48.27
39341;BME280;25059;52.132;21.062;2023-05-19T00:50:22;101459.25;;;22.21;48.50
39341;BME280;25059;52.132;21.062;2023-05-19T00:53:07;101461.94;;;21.15;50.31
39341;BME280;25059;52.132;21.062;2023-05-19T00:55:51;101452.97;;;21.96;49.02
39341;BME280;25059;52.132;21.062;2023-05-19T00:58:36;101453.28;;;21.78;48.97
39341;BME280;25059;52.132;21.062;2023-05-19T01:01:22;101441.63;;;21.40;49.44
39341;BME280;25059;52.132;21.062;2023-05-19T01:04:06;101448.66;;;21.68;49.07
39341;BME280;25059;52.132;21.062;2023-05-19T01:06:53;101456.97;;;21.23;49.94
39341;BME280;25059;52.132;21.062;2023-05-19T01:09:38;101444.59;;;21.35;49.97
39341;BME280;25059;52.132;21.062;2023-05-19T01:12:24;101443.78;;;21.20;50.46
39341;BME280;25059;52.132;21.062;2023-05-19T01:15:10;101448.75;;;21.26;50.51
39341;BME280;25059;52.132;21.062;2023-05-19T01:18:03;101442.72;;;21.50;50.39
39341;BME280;25059;52.132;21.062;2023-05-19T01:20:59;101439.00;;;21.25;50.44
39341;BME280;25059;52.132;21.062;2023-05-19T01:23:51;101433.13;;;21.60;50.03
39341;BME280;25059;52.132;21.062;2023-05-19T01:32:54;101450.13;;;21.59;50.83
39341;BME280;25059;52.132;21.062;2023-05-19T01:35:41;101439.38;;;21.19;51.12
39341;BME280;25059;52.132;21.062;2023-05-19T01:38:27;101440.28;;;20.64;52.52
39341;BME280;25059;52.132;21.062;2023-05-19T01:41:13;101441.13;;;20.79;51.90
39341;BME280;25059;52.132;21.062;2023-05-19T01:43:59;101435.19;;;20.88;51.79
39341;BME280;25059;52.132;21.062;2023-05-19T01:46:44;101424.50;;;21.15;51.12
39341;BME280;25059;52.132;21.062;2023-05-19T01:49:28;101434.94;;;21.06;50.91
39341;BME280;25059;52.132;21.062;2023-05-19T01:52:13;101424.38;;;20.90;51.76
39341;BME280;25059;52.132;21.062;2023-05-19T01:54:58;101425.44;;;20.87;51.50
39341;BME280;25059;52.132;21.062;2023-05-19T02:01:10;101425.75;;;21.64;50.83
39341;BME280;25059;52.132;21.062;2023-05-19T02:04:36;101419.44;;;21.90;50.09
39341;BME280;25059;52.132;21.062;2023-05-19T02:07:30;101432.41;;;21.31;52.18
39341;BME280;25059;52.132;21.062;2023-05-19T02:10:23;101412.16;;;21.67;51.31
39341;BME280;25059;52.132;21.062;2023-05-19T02:13:12;101420.66;;;21.19;52.45
39341;BME280;25059;52.132;21.062;2023-05-19T02:16:03;101415.91;;;21.77;51.12
39341;BME280;25059;52.132;21.062;2023-05-19T02:18:49;101419.97;;;21.82;50.97
39341;BME280;25059;52.132;21.062;2023-05-19T02:21:37;101422.75;;;21.81;50.75
39341;BME280;25059;52.132;21.062;2023-05-19T02:24:21;101421.25;;;21.64;50.68
39341;BME280;25059;52.132;21.062;2023-05-19T02:27:06;101419.13;;;21.82;50.93
39341;BME280;25059;52.132;21.062;2023-05-19T02:29:51;101420.03;;;22.20;50.14
39341;BME280;25059;52.132;21.062;2023-05-19T02:32:36;101428.22;;;21.67;50.90
39341;BME280;25059;52.132;21.062;2023-05-19T02:35:20;101428.75;;;21.72;51.10
39341;BME280;25059;52.132;21.062;2023-05-19T02:38:05;101426.53;;;21.91;50.67
39341;BME280;25059;52.132;21.062;2023-05-19T02:40:51;101418.94;;;22.23;50.35
39341;BME280;25059;52.132;21.062;2023-05-19T02:43:36;101430.69;;;21.95;50.40
39341;BME280;25059;52.132;21.062;2023-05-19T02:46:21;101426.97;;;21.98;50.96
39341;BME280;25059;52.132;21.062;2023-05-19T02:49:05;101416.44;;;21.69;51.92
39341;BME280;25059;52.132;21.062;2023-05-19T02:51:50;101406.16;;;21.88;51.23
39341;BME280;25059;52.132;21.062;2023-05-19T02:54:34;101409.00;;;22.12;51.25
39341;BME280;25059;52.132;21.062;2023-05-19T02:57:18;101422.88;;;21.92;51.54
39341;BME280;25059;52.132;21.062;2023-05-19T03:00:03;101413.56;;;21.85;51.99
39341;BME280;25059;52.132;21.062;2023-05-19T03:02:52;101424.91;;;22.01;51.67
39341;BME280;25059;52.132;21.062;2023-05-19T03:05:37;101434.13;;;21.97;51.64
39341;BME280;25059;52.132;21.062;2023-05-19T03:08:21;101424.16;;;21.99;51.98
39341;BME280;25059;52.132;21.062;2023-05-19T03:11:06;101427.31;;;22.06;51.33
39341;BME280;25059;52.132;21.062;2023-05-19T03:13:50;101434.84;;;21.61;52.27
39341;BME280;25059;52.132;21.062;2023-05-19T03:16:35;101428.13;;;21.81;51.74
39341;BME280;25059;52.132;21.062;2023-05-19T03:19:20;101428.06;;;22.20;51.30
39341;BME280;25059;52.132;21.062;2023-05-19T03:22:05;101426.97;;;21.98;51.95
39341;BME280;25059;52.132;21.062;2023-05-19T03:24:49;101434.50;;;22.05;51.57
39341;BME280;25059;52.132;21.062;2023-05-19T03:27:34;101428.69;;;22.24;51.28
39341;BME280;25059;52.132;21.062;2023-05-19T03:30:19;101438.34;;;22.39;51.23
39341;BME280;25059;52.132;21.062;2023-05-19T03:33:04;101437.91;;;22.45;50.91
39341;BME280;25059;52.132;21.062;2023-05-19T03:35:48;101421.09;;;22.31;51.61
39341;BME280;25059;52.132;21.062;2023-05-19T03:38:33;101426.72;;;21.88;52.26
39341;BME280;25059;52.132;21.062;2023-05-19T03:41:18;101422.91;;;22.17;51.60
39341;BME280;25059;52.132;21.062;2023-05-19T03:44:03;101431.69;;;22.07;52.42
39341;BME280;25059;52.132;21.062;2023-05-19T03:46:47;101413.13;;;21.78;52.19
39341;BME280;25059;52.132;21.062;2023-05-19T03:49:32;101423.63;;;21.94;51.80
39341;BME280;25059;52.132;21.062;2023-05-19T03:52:38;101434.38;;;22.32;52.23
39341;BME280;25059;52.132;21.062;2023-05-19T03:55:23;101420.72;;;21.72;53.10
39341;BME280;25059;52.132;21.062;2023-05-19T03:58:09;101434.06;;;21.59;53.18
39341;BME280;25059;52.132;21.062;2023-05-19T04:00:54;101423.84;;;21.39;53.52
39341;BME280;25059;52.132;21.062;2023-05-19T04:03:38;101428.03;;;21.95;52.62
39341;BME280;25059;52.132;21.062;2023-05-19T04:06:23;101426.97;;;21.45;53.94
39341;BME280;25059;52.132;21.062;2023-05-19T04:09:12;101426.75;;;21.36;54.25
39341;BME280;25059;52.132;21.062;2023-05-19T04:11:57;101430.94;;;22.05;52.61
39341;BME280;25059;52.132;21.062;2023-05-19T04:14:41;101424.03;;;21.75;53.35
39341;BME280;25059;52.132;21.062;2023-05-19T04:17:26;101426.09;;;21.84;52.92
39341;BME280;25059;52.132;21.062;2023-05-19T04:20:11;101424.50;;;21.95;52.97
39341;BME280;25059;52.132;21.062;2023-05-19T04:22:55;101438.81;;;21.68;54.10
39341;BME280;25059;52.132;21.062;2023-05-19T04:25:40;101431.66;;;21.94;53.31
39341;BME280;25059;52.132;21.062;2023-05-19T04:28:25;101426.84;;;21.86;53.36
39341;BME280;25059;52.132;21.062;2023-05-19T04:31:10;101424.22;;;21.59;53.94
39341;BME280;25059;52.132;21.062;2023-05-19T04:33:55;101412.53;;;22.13;52.45
39341;BME280;25059;52.132;21.062;2023-05-19T04:36:40;101414.03;;;22.17;52.41
39341;BME280;25059;52.132;21.062;2023-05-19T04:39:24;101409.69;;;21.89;53.08
39341;BME280;25059;52.132;21.062;2023-05-19T04:42:09;101428.03;;;21.95;52.78
39341;BME280;25059;52.132;21.062;2023-05-19T04:44:54;101425.47;;;21.41;53.92
39341;BME280;25059;52.132;21.062;2023-05-19T04:47:45;101416.25;;;22.36;52.79
39341;BME280;25059;52.132;21.062;2023-05-19T04:50:50;101420.13;;;22.32;52.29
39341;BME280;25059;52.132;21.062;2023-05-19T04:53:35;101416.53;;;22.56;51.69
39341;BME280;25059;52.132;21.062;2023-05-19T04:56:44;101404.53;;;22.49;52.01
39341;BME280;25059;52.132;21.062;2023-05-19T04:59:47;101424.28;;;22.36;52.71
39341;BME280;25059;52.132;21.062;2023-05-19T05:02:32;101430.75;;;22.08;53.25
39341;BME280;25059;52.132;21.062;2023-05-19T05:05:17;101436.69;;;22.62;51.92
39341;BME280;25059;52.132;21.062;2023-05-19T05:08:02;101435.66;;;22.39;51.51
39341;BME280;25059;52.132;21.062;2023-05-19T05:10:48;101417.41;;;21.93;53.36
39341;BME280;25059;52.132;21.062;2023-05-19T05:13:32;101437.31;;;22.66;51.86
39341;BME280;25059;52.132;21.062;2023-05-19T05:16:17;101411.97;;;22.20;52.74
39341;BME280;25059;52.132;21.062;2023-05-19T05:19:02;101414.47;;;22.73;51.92
39341;BME280;25059;52.132;21.062;2023-05-19T05:21:48;101436.13;;;22.70;52.00
39341;BME280;25059;52.132;21.062;2023-05-19T05:24:32;101428.28;;;23.40;50.80
39341;BME280;25059;52.132;21.062;2023-05-19T05:27:17;101435.56;;;22.28;52.45
39341;BME280;25059;52.132;21.062;2023-05-19T05:30:02;101414.06;;;23.03;50.98
39341;BME280;25059;52.132;21.062;2023-05-19T05:32:47;101406.53;;;22.84;51.39
39341;BME280;25059;52.132;21.062;2023-05-19T05:35:32;101413.91;;;23.17;50.80
39341;BME280;25059;52.132;21.062;2023-05-19T05:38:17;101439.59;;;21.43;54.04
39341;BME280;25059;52.132;21.062;2023-05-19T05:41:02;101422.31;;;22.63;52.12
39341;BME280;25059;52.132;21.062;2023-05-19T05:44:08;101424.91;;;23.84;50.31
39341;BME280;25059;52.132;21.062;2023-05-19T05:47:19;101426.03;;;24.04;49.88
39341;BME280;25059;52.132;21.062;2023-05-19T05:50:05;101415.94;;;23.13;51.07
39341;BME280;25059;52.132;21.062;2023-05-19T05:52:51;101424.22;;;23.34;51.62
39341;BME280;25059;52.132;21.062;2023-05-19T05:55:37;101423.72;;;23.05;51.71
39341;BME280;25059;52.132;21.062;2023-05-19T05:58:21;101419.16;;;23.53;50.99
39341;BME280;25059;52.132;21.062;2023-05-19T06:01:07;101418.66;;;22.64;51.84
39341;BME280;25059;52.132;21.062;2023-05-19T06:03:54;101405.47;;;23.45;50.69
39341;BME280;25059;52.132;21.062;2023-05-19T06:06:42;101424.13;;;24.28;49.63
39341;BME280;25059;52.132;21.062;2023-05-19T06:09:27;101425.31;;;23.32;50.88
39341;BME280;25059;52.132;21.062;2023-05-19T06:12:17;101432.31;;;23.45;50.86
39341;BME280;25059;52.132;21.062;2023-05-19T06:15:08;101433.13;;;23.11;51.12
39341;BME280;25059;52.132;21.062;2023-05-19T06:17:55;101423.97;;;24.19;49.41
39341;BME280;25059;52.132;21.062;2023-05-19T06:20:50;101433.97;;;23.94;49.82
39341;BME280;25059;52.132;21.062;2023-05-19T06:23:35;101433.63;;;23.40;50.71
39341;BME280;25059;52.132;21.062;2023-05-19T06:26:29;101413.81;;;23.53;50.36
39341;BME280;25059;52.132;21.062;2023-05-19T06:29:20;101434.25;;;23.43;51.41
39341;BME280;25059;52.132;21.062;2023-05-19T06:32:39;101430.75;;;24.35;49.95
39341;BME280;25059;52.132;21.062;2023-05-19T06:35:30;101428.25;;;24.21;50.18
39341;BME280;25059;52.132;21.062;2023-05-19T06:38:15;101427.94;;;24.37;49.50
39341;BME280;25059;52.132;21.062;2023-05-19T06:41:02;101423.41;;;23.45;50.76
39341;BME280;25059;52.132;21.062;2023-05-19T06:43:50;101408.88;;;24.40;49.57
39341;BME280;25059;52.132;21.062;2023-05-19T06:46:34;101436.28;;;23.99;49.76
39341;BME280;25059;52.132;21.062;2023-05-19T06:49:19;101433.94;;;23.83;50.36
39341;BME280;25059;52.132;21.062;2023-05-19T06:52:04;101427.28;;;23.65;50.13
39341;BME280;25059;52.132;21.062;2023-05-19T06:54:50;101433.41;;;23.43;50.72
39341;BME280;25059;52.132;21.062;2023-05-19T06:57:37;101435.44;;;23.98;49.93
39341;BME280;25059;52.132;21.062;2023-05-19T07:00:21;101427.66;;;23.36;51.28
39341;BME280;25059;52.132;21.062;2023-05-19T07:06:33;101426.75;;;23.25;51.63
39341;BME280;25059;52.132;21.062;2023-05-19T07:09:27;101428.38;;;23.38;51.61
39341;BME280;25059;52.132;21.062;2023-05-19T07:15:56;101416.69;;;24.32;49.71
39341;BME280;25059;52.132;21.062;2023-05-19T07:18:44;101422.19;;;24.53;50.15
39341;BME280;25059;52.132;21.062;2023-05-19T07:25:17;101423.97;;;25.61;47.66
39341;BME280;25059;52.132;21.062;2023-05-19T07:31:56;101414.91;;;24.98;48.73
39341;BME280;25059;52.132;21.062;2023-05-19T07:34:41;101418.84;;;24.71;48.68
39341;BME280;25059;52.132;21.062;2023-05-19T07:37:26;101426.00;;;25.16;48.57
39341;BME280;25059;52.132;21.062;2023-05-19T07:40:13;101425.63;;;25.20;48.24
39341;BME280;25059;52.132;21.062;2023-05-19T07:43:11;101422.75;;;24.00;49.83
39341;BME280;25059;52.132;21.062;2023-05-19T07:46:02;101429.59;;;24.15;50.06
39341;BME280;25059;52.132;21.062;2023-05-19T07:49:14;101416.84;;;23.84;50.15
39341;BME280;25059;52.132;21.062;2023-05-19T07:51:59;101428.13;;;24.11;50.40
39341;BME280;25059;52.132;21.062;2023-05-19T07:54:57;101430.78;;;23.89;50.71
39341;BME280;25059;52.132;21.062;2023-05-19T08:07:34;101424.94;;;24.85;48.94
39341;BME280;25059;52.132;21.062;2023-05-19T08:10:23;101405.31;;;23.60;51.28
39341;BME280;25059;52.132;21.062;2023-05-19T08:13:11;101393.88;;;23.80;50.18
39341;BME280;25059;52.132;21.062;2023-05-19T08:15:58;101425.53;;;23.99;50.66
39341;BME280;25059;52.132;21.062;2023-05-19T08:18:49;101419.69;;;24.16;50.04
39341;BME280;25059;52.132;21.062;2023-05-19T08:21:42;101426.19;;;24.69;49.31
39341;BME280;25059;52.132;21.062;2023-05-19T08:24:29;101425.03;;;23.82;51.02
39341;BME280;25059;52.132;21.062;2023-05-19T08:27:14;101425.59;;;24.66;48.35
39341;BME280;25059;52.132;21.062;2023-05-19T08:29:59;101414.47;;;24.70;48.59
39341;BME280;25059;52.132;21.062;2023-05-19T08:32:56;101425.00;;;25.17;48.21
39341;BME280;25059;52.132;21.062;2023-05-19T08:39:32;101421.34;;;25.18;47.26
39341;BME280;25059;52.132;21.062;2023-05-19T08:42:17;101416.44;;;24.35;47.97
39341;BME280;25059;52.132;21.062;2023-05-19T08:45:08;101416.13;;;25.37;47.62
39341;BME280;25059;52.132;21.062;2023-05-19T08:48:06;101428.56;;;25.17;48.04
39341;BME280;25059;52.132;21.062;2023-05-19T08:51:13;101430.38;;;25.28;47.95
39341;BME280;25059;52.132;21.062;2023-05-19T08:54:29;101422.19;;;25.50;46.71
39341;BME280;25059;52.132;21.062;2023-05-19T08:57:21;101425.78;;;25.71;46.72
39341;BME280;25059;52.132;21.062;2023-05-19T09:00:42;101427.03;;;26.39;45.29
39341;BME280;25059;52.132;21.062;2023-05-19T09:07:35;101422.22;;;26.43;45.12
39341;BME280;25059;52.132;21.062;2023-05-19T09:10:21;101425.88;;;26.73;44.69
39341;BME280;25059;52.132;21.062;2023-05-19T09:13:08;101431.25;;;26.63;44.72
39341;BME280;25059;52.132;21.062;2023-05-19T09:16:01;101420.31;;;27.14;44.39
39341;BME280;25059;52.132;21.062;2023-05-19T09:18:56;101425.44;;;26.67;44.61
39341;BME280;25059;52.132;21.062;2023-05-19T09:21:45;101423.00;;;27.14;43.52
39341;BME280;25059;52.132;21.062;2023-05-19T09:24:38;101428.00;;;26.69;44.19
39341;BME280;25059;52.132;21.062;2023-05-19T09:27:30;101427.19;;;26.78;43.30
39341;BME280;25059;52.132;21.062;2023-05-19T09:30:22;101423.41;;;26.50;44.69
39341;BME280;25059;52.132;21.062;2023-05-19T09:33:18;101420.31;;;26.64;43.72
39341;BME280;25059;52.132;21.062;2023-05-19T09:36:03;101420.97;;;26.47;43.44
39341;BME280;25059;52.132;21.062;2023-05-19T09:38:59;101415.13;;;26.42;43.79
39341;BME280;25059;52.132;21.062;2023-05-19T09:41:44;101419.66;;;25.90;45.12
39341;BME280;25059;52.132;21.062;2023-05-19T09:44:46;101426.50;;;26.86;43.82
39341;BME280;25059;52.132;21.062;2023-05-19T09:47:37;101424.88;;;26.64;43.52
39341;BME280;25059;52.132;21.062;2023-05-19T09:50:23;101413.16;;;25.93;44.60
39341;BME280;25059;52.132;21.062;2023-05-19T09:53:16;101427.78;;;26.21;44.45
39341;BME280;25059;52.132;21.062;2023-05-19T09:56:07;101415.41;;;26.89;43.55
39341;BME280;25059;52.132;21.062;2023-05-19T09:59:03;101403.03;;;26.77;43.48
39341;BME280;25059;52.132;21.062;2023-05-19T10:01:54;101385.72;;;26.79;43.49
39341;BME280;25059;52.132;21.062;2023-05-19T10:04:59;101424.00;;;27.13;43.09
39341;BME280;25059;52.132;21.062;2023-05-19T10:07:51;101416.31;;;26.99;42.90
39341;BME280;25059;52.132;21.062;2023-05-19T10:10:41;101418.47;;;27.24;43.06
39341;BME280;25059;52.132;21.062;2023-05-19T10:13:30;101419.28;;;28.02;41.98
39341;BME280;25059;52.132;21.062;2023-05-19T10:16:30;101403.19;;;28.47;40.53
39341;BME280;25059;52.132;21.062;2023-05-19T10:19:21;101360.94;;;28.37;40.71
39341;BME280;25059;52.132;21.062;2023-05-19T10:22:23;101414.81;;;28.57;39.91
39341;BME280;25059;52.132;21.062;2023-05-19T10:25:12;101417.13;;;29.43;39.68
39341;BME280;25059;52.132;21.062;2023-05-19T10:31:34;101393.66;;;29.16;38.76
39341;BME280;25059;52.132;21.062;2023-05-19T10:41:49;101401.47;;;28.46;39.52
39341;BME280;25059;52.132;21.062;2023-05-19T10:47:31;101389.69;;;29.10;38.35
39341;BME280;25059;52.132;21.062;2023-05-19T10:50:25;101368.03;;;29.10;38.55
39341;BME280;25059;52.132;21.062;2023-05-19T10:53:19;101371.94;;;28.80;39.28
39341;BME280;25059;52.132;21.062;2023-05-19T10:56:27;101403.16;;;29.38;38.47
39341;BME280;25059;52.132;21.062;2023-05-19T10:59:34;101402.78;;;29.50;38.05
39341;BME280;25059;52.132;21.062;2023-05-19T11:02:38;101399.78;;;29.79;37.91
39341;BME280;25059;52.132;21.062;2023-05-19T11:05:44;101403.50;;;29.78;38.00
39341;BME280;25059;52.132;21.062;2023-05-19T11:08:45;101410.84;;;29.42;37.96
39341;BME280;25059;52.132;21.062;2023-05-19T11:12:00;101375.38;;;29.79;37.12
39341;BME280;25059;52.132;21.062;2023-05-19T11:14:51;101398.44;;;29.57;37.90
39341;BME280;25059;52.132;21.062;2023-05-19T11:17:47;101394.50;;;29.16;38.64
39341;BME280;25059;52.132;21.062;2023-05-19T11:20:41;101389.75;;;28.55;39.18
39341;BME280;25059;52.132;21.062;2023-05-19T11:23:32;101396.31;;;29.43;38.45
39341;BME280;25059;52.132;21.062;2023-05-19T11:26:43;101391.53;;;29.63;38.04
39341;BME280;25059;52.132;21.062;2023-05-19T11:29:30;101408.03;;;28.99;38.73
39341;BME280;25059;52.132;21.062;2023-05-19T11:32:20;101408.88;;;28.99;38.82
39341;BME280;25059;52.132;21.062;2023-05-19T11:35:06;101404.41;;;29.25;38.54
39341;BME280;25059;52.132;21.062;2023-05-19T11:41:25;101407.59;;;28.76;39.96
39341;BME280;25059;52.132;21.062;2023-05-19T11:44:43;101398.91;;;29.53;38.91
39341;BME280;25059;52.132;21.062;2023-05-19T11:47:30;101399.84;;;29.08;39.49
39341;BME280;25059;52.132;21.062;2023-05-19T11:51:29;101400.16;;;29.23;39.07
39341;BME280;25059;52.132;21.062;2023-05-19T11:54:12;101401.88;;;28.79;38.73
39341;BME280;25059;52.132;21.062;2023-05-19T11:56:59;101395.13;;;29.46;38.54
39341;BME280;25059;52.132;21.062;2023-05-19T12:00:21;101356.72;;;28.97;39.01
39341;BME280;25059;52.132;21.062;2023-05-19T12:03:43;101405.88;;;29.38;38.43
39341;BME280;25059;52.132;21.062;2023-05-19T12:06:30;101408.50;;;29.30;38.61
39341;BME280;25059;52.132;21.062;2023-05-19T12:09:18;101398.75;;;29.54;38.38
39341;BME280;25059;52.132;21.062;2023-05-19T12:12:20;101380.63;;;29.55;38.11
39341;BME280;25059;52.132;21.062;2023-05-19T12:15:21;101386.66;;;29.93;37.64
39341;BME280;25059;52.132;21.062;2023-05-19T12:18:06;101383.47;;;28.27;39.39
39341;BME280;25059;52.132;21.062;2023-05-19T12:21:13;101396.75;;;28.76;39.27
39341;BME280;25059;52.132;21.062;2023-05-19T12:23:59;101400.16;;;29.05;38.79
39341;BME280;25059;52.132;21.062;2023-05-19T12:27:24;101407.09;;;28.62;39.39
39341;BME280;25059;52.132;21.062;2023-05-19T12:30:11;101395.34;;;29.17;38.29
39341;BME280;25059;52.132;21.062;2023-05-19T12:32:56;101385.84;;;29.13;39.21
39341;BME280;25059;52.132;21.062;2023-05-19T12:36:17;101405.41;;;30.04;37.52
39341;BME280;25059;52.132;21.062;2023-05-19T12:39:04;101405.56;;;30.02;37.09
39341;BME280;25059;52.132;21.062;2023-05-19T12:41:50;101390.25;;;29.49;37.66
39341;BME280;25059;52.132;21.062;2023-05-19T12:44:37;101400.47;;;29.20;38.85
39341;BME280;25059;52.132;21.062;2023-05-19T12:47:29;101403.28;;;28.55;39.34
39341;BME280;25059;52.132;21.062;2023-05-19T12:50:18;101372.81;;;27.50;40.64
39341;BME280;25059;52.132;21.062;2023-05-19T12:53:30;101393.94;;;28.03;39.98
39341;BME280;25059;52.132;21.062;2023-05-19T13:00:14;101376.03;;;28.39;39.53
39341;BME280;25059;52.132;21.062;2023-05-19T13:03:07;101388.25;;;28.71;39.54
39341;BME280;25059;52.132;21.062;2023-05-19T13:05:54;101365.44;;;28.09;39.75
39341;BME280;25059;52.132;21.062;2023-05-19T13:08:40;101377.00;;;28.66;39.58
39341;BME280;25059;52.132;21.062;2023-05-19T13:11:24;101397.31;;;28.24;39.80
39341;BME280;25059;52.132;21.062;2023-05-19T13:14:12;101394.47;;;28.53;40.21
39341;BME280;25059;52.132;21.062;2023-05-19T13:20:25;101399.03;;;28.06;40.47
39341;BME280;25059;52.132;21.062;2023-05-19T13:23:10;101351.41;;;27.95;40.38
39341;BME280;25059;52.132;21.062;2023-05-19T13:26:04;101388.22;;;28.06;40.54
39341;BME280;25059;52.132;21.062;2023-05-19T13:28:50;101360.06;;;27.99;40.39
39341;BME280;25059;52.132;21.062;2023-05-19T13:31:34;101395.03;;;27.63;41.20
39341;BME280;25059;52.132;21.062;2023-05-19T13:34:19;101400.25;;;27.75;41.16
39341;BME280;25059;52.132;21.062;2023-05-19T13:37:07;101398.31;;;28.14;41.10
39341;BME280;25059;52.132;21.062;2023-05-19T13:39:54;101397.53;;;27.84;40.81
39341;BME280;25059;52.132;21.062;2023-05-19T13:42:39;101376.41;;;28.07;40.78
39341;BME280;25059;52.132;21.062;2023-05-19T13:45:24;101361.44;;;27.66;40.95
39341;BME280;25059;52.132;21.062;2023-05-19T13:48:09;101391.47;;;27.63;41.52
39341;BME280;25059;52.132;21.062;2023-05-19T13:50:55;101385.09;;;28.11;40.75
39341;BME280;25059;52.132;21.062;2023-05-19T13:53:40;101374.13;;;28.49;40.40
39341;BME280;25059;52.132;21.062;2023-05-19T13:56:24;101391.25;;;28.40;40.59
39341;BME280;25059;52.132;21.062;2023-05-19T13:59:10;101373.25;;;28.76;39.88
39341;BME280;25059;52.132;21.062;2023-05-19T14:01:55;101368.81;;;28.30;40.92
39341;BME280;25059;52.132;21.062;2023-05-19T14:04:39;101378.97;;;28.09;40.57
39341;BME280;25059;52.132;21.062;2023-05-19T14:07:24;101372.13;;;28.14;40.68
39341;BME280;25059;52.132;21.062;2023-05-19T14:10:08;101388.34;;;28.24;40.46
39341;BME280;25059;52.132;21.062;2023-05-19T14:12:54;101388.03;;;27.71;41.33
39341;BME280;25059;52.132;21.062;2023-05-19T14:15:39;101386.19;;;27.71;41.64
39341;BME280;25059;52.132;21.062;2023-05-19T14:18:24;101377.53;;;27.29;42.03
39341;BME280;25059;52.132;21.062;2023-05-19T14:21:08;101384.91;;;26.98;42.55
39341;BME280;25059;52.132;21.062;2023-05-19T14:27:42;101401.97;;;27.27;42.71
39341;BME280;25059;52.132;21.062;2023-05-19T14:30:57;101393.59;;;27.11;43.42
39341;BME280;25059;52.132;21.062;2023-05-19T14:33:42;101395.44;;;26.21;44.26
39341;BME280;25059;52.132;21.062;2023-05-19T14:36:53;101404.34;;;26.42;44.92
39341;BME280;25059;52.132;21.062;2023-05-19T14:39:37;101403.41;;;26.62;44.01
39341;BME280;25059;52.132;21.062;2023-05-19T14:42:22;101390.75;;;27.32;42.99
39341;BME280;25059;52.132;21.062;2023-05-19T14:45:25;101390.19;;;27.48;42.70
39341;BME280;25059;52.132;21.062;2023-05-19T14:51:53;101400.59;;;26.74;44.05
39341;BME280;25059;52.132;21.062;2023-05-19T14:54:37;101400.16;;;26.68;43.91
39341;BME280;25059;52.132;21.062;2023-05-19T14:57:53;101394.72;;;27.18;43.29
39341;BME280;25059;52.132;21.062;2023-05-19T15:00:38;101403.00;;;26.67;44.30
39341;BME280;25059;52.132;21.062;2023-05-19T15:03:47;101399.34;;;26.87;43.72
39341;BME280;25059;52.132;21.062;2023-05-19T15:06:32;101399.84;;;27.50;43.16
39341;BME280;25059;52.132;21.062;2023-05-19T15:09:50;101408.09;;;27.58;42.92
39341;BME280;25059;52.132;21.062;2023-05-19T15:13:02;101411.94;;;27.75;42.53
39341;BME280;25059;52.132;21.062;2023-05-19T15:15:47;101398.84;;;27.03;43.59
39341;BME280;25059;52.132;21.062;2023-05-19T15:18:32;101405.09;;;26.23;45.25
39341;BME280;25059;52.132;21.062;2023-05-19T15:21:42;101417.34;;;26.67;44.43
39341;BME280;25059;52.132;21.062;2023-05-19T15:27:53;101407.72;;;26.84;44.16
39341;BME280;25059;52.132;21.062;2023-05-19T15:30:38;101401.53;;;27.03;43.71
39341;BME280;25059;52.132;21.062;2023-05-19T15:33:23;101403.53;;;27.01;43.80
39341;BME280;25059;52.132;21.062;2023-05-19T15:36:07;101406.84;;;26.64;44.86
39341;BME280;25059;52.132;21.062;2023-05-19T15:38:55;101409.28;;;26.77;44.43
39341;BME280;25059;52.132;21.062;2023-05-19T15:41:40;101404.13;;;26.64;44.53
39341;BME280;25059;52.132;21.062;2023-05-19T15:44:24;101400.66;;;25.92;45.85
39341;BME280;25059;52.132;21.062;2023-05-19T15:47:10;101393.66;;;26.10;45.49
39341;BME280;25059;52.132;21.062;2023-05-19T15:50:19;101393.81;;;26.39;45.26
39341;BME280;25059;52.132;21.062;2023-05-19T15:53:03;101394.84;;;26.17;45.67
39341;BME280;25059;52.132;21.062;2023-05-19T15:55:50;101383.84;;;25.99;45.87